Main page
METAR-TAF:

METAR-TAF

Airports :

Bonriki International Airport

Tarawa, Kiribati

latitude: 01-21N, longitude: 172-55E, elevation: 2 m

Current weather observation

The report was made 45 minutes ago, at 16:00 UTC
Wind 4 kt from the East/Southeast
Temperature 28°C
Humidity 79%
Pressure 1007 hPa
Visibility 10 km or more
Scattered clouds at a height of 1900 ft

METAR: NGTA 211600Z 12004KT 9999 SCT019 28/24 Q1007

Time: 06:45 (16:45 UTC)

Forecast

The report was made 5 hours and 24 minutes ago, at 11:21 UTC
Forecast valid from 21 at 12 UTC to 22 at 12 UTC
Wind 6 kt from the East
Visibility 10 km or more
Few clouds at a height of 2000 ft
Broken clouds at a height of 10000 ft

TAF: NGTA 211121Z 2112/2212 10006KT 9999 FEW020 BKN100

Weather observations and forecasts of more than 4000 airports (METAR and TAF reports).

The available stations are represented by yellow and red dots on the map.

Hover mouse over dot to see the name of the station.

Then click to see weather observations and forecasts.

To change the map : click on the green buttons with a black cross to zoom in, on the green button with a dash to zoom out, or on the green arrows for adjacent maps.


METAR-TAF: